sensor_id;sensor_type;location;lat;lon;timestamp;temperature;humidity
64198;SHT31;50512;53.666;9.700;2024-01-30T00:01:34;2.76;99.99
64198;SHT31;50512;53.666;9.700;2024-01-30T00:04:00;3.02;99.99
64198;SHT31;50512;53.666;9.700;2024-01-30T00:06:26;3.27;99.99
64198;SHT31;50512;53.666;9.700;2024-01-30T00:08:54;3.36;99.99
64198;SHT31;50512;53.666;9.700;2024-01-30T00:11:20;3.39;99.85
64198;SHT31;50512;53.666;9.700;2024-01-30T00:13:47;3.44;99.55
64198;SHT31;50512;53.666;9.700;2024-01-30T00:16:20;3.33;98.49
64198;SHT31;50512;53.666;9.700;2024-01-30T00:18:46;3.32;98.43
64198;SHT31;50512;53.666;9.700;2024-01-30T00:21:12;3.25;97.79
64198;SHT31;50512;53.666;9.700;2024-01-30T00:23:39;3.11;97.02
64198;SHT31;50512;53.666;9.700;2024-01-30T00:26:07;3.12;97.32
64198;SHT31;50512;53.666;9.700;2024-01-30T00:28:33;3.19;97.97
64198;SHT31;50512;53.666;9.700;2024-01-30T00:31:00;3.23;98.10
64198;SHT31;50512;53.666;9.700;2024-01-30T00:33:26;3.19;97.65
64198;SHT31;50512;53.666;9.700;2024-01-30T00:35:52;3.56;99.58
64198;SHT31;50512;53.666;9.700;2024-01-30T00:38:19;3.71;99.15
64198;SHT31;50512;53.666;9.700;2024-01-30T00:40:45;3.70;98.94
64198;SHT31;50512;53.666;9.700;2024-01-30T00:43:13;3.81;99.16
64198;SHT31;50512;53.666;9.700;2024-01-30T00:45:40;3.92;98.44
64198;SHT31;50512;53.666;9.700;2024-01-30T00:48:06;4.08;98.00
64198;SHT31;50512;53.666;9.700;2024-01-30T00:50:33;4.26;97.79
64198;SHT31;50512;53.666;9.700;2024-01-30T00:52:59;4.28;96.50
64198;SHT31;50512;53.666;9.700;2024-01-30T00:55:26;4.20;96.86
64198;SHT31;50512;53.666;9.700;2024-01-30T00:57:52;4.43;97.04
64198;SHT31;50512;53.666;9.700;2024-01-30T01:00:20;4.53;96.47
64198;SHT31;50512;53.666;9.700;2024-01-30T01:02:48;4.47;95.77
64198;SHT31;50512;53.666;9.700;2024-01-30T01:05:15;4.42;96.48
64198;SHT31;50512;53.666;9.700;2024-01-30T01:07:41;4.39;96.17
64198;SHT31;50512;53.666;9.700;2024-01-30T01:10:08;4.39;96.22
64198;SHT31;50512;53.666;9.700;2024-01-30T01:12:36;4.36;95.80
64198;SHT31;50512;53.666;9.700;2024-01-30T01:15:03;4.49;95.91
64198;SHT31;50512;53.666;9.700;2024-01-30T01:17:31;4.58;95.59
64198;SHT31;50512;53.666;9.700;2024-01-30T01:19:57;4.68;95.24
64198;SHT31;50512;53.666;9.700;2024-01-30T01:22:24;4.71;95.01
64198;SHT31;50512;53.666;9.700;2024-01-30T01:24:50;4.74;94.85
64198;SHT31;50512;53.666;9.700;2024-01-30T01:27:17;4.74;94.80
64198;SHT31;50512;53.666;9.700;2024-01-30T01:29:43;4.87;94.58
64198;SHT31;50512;53.666;9.700;2024-01-30T01:32:10;4.95;94.05
64198;SHT31;50512;53.666;9.700;2024-01-30T01:34:38;5.09;93.37
64198;SHT31;50512;53.666;9.700;2024-01-30T01:37:05;5.08;93.26
64198;SHT31;50512;53.666;9.700;2024-01-30T01:39:32;5.08;93.24
64198;SHT31;50512;53.666;9.700;2024-01-30T01:41:59;5.11;93.03
64198;SHT31;50512;53.666;9.700;2024-01-30T01:44:25;5.15;92.90
64198;SHT31;50512;53.666;9.700;2024-01-30T01:46:52;5.16;92.65
64198;SHT31;50512;53.666;9.700;2024-01-30T01:49:20;5.18;92.55
64198;SHT31;50512;53.666;9.700;2024-01-30T01:51:48;5.11;92.78
64198;SHT31;50512;53.666;9.700;2024-01-30T01:54:16;5.04;93.08
64198;SHT31;50512;53.666;9.700;2024-01-30T01:56:43;5.02;93.07
64198;SHT31;50512;53.666;9.700;2024-01-30T01:59:10;5.09;92.93
64198;SHT31;50512;53.666;9.700;2024-01-30T02:01:37;5.16;92.51
64198;SHT31;50512;53.666;9.700;2024-01-30T02:04:04;5.13;92.46
64198;SHT31;50512;53.666;9.700;2024-01-30T02:06:31;5.05;92.65
64198;SHT31;50512;53.666;9.700;2024-01-30T02:08:59;5.05;92.55
64198;SHT31;50512;53.666;9.700;2024-01-30T02:11:26;4.96;92.64
64198;SHT31;50512;53.666;9.700;2024-01-30T02:13:52;4.77;93.12
64198;SHT31;50512;53.666;9.700;2024-01-30T02:16:19;4.70;93.60
64198;SHT31;50512;53.666;9.700;2024-01-30T02:18:46;4.63;93.64
64198;SHT31;50512;53.666;9.700;2024-01-30T02:21:15;4.67;93.84
64198;SHT31;50512;53.666;9.700;2024-01-30T02:23:43;4.71;93.51
64198;SHT31;50512;53.666;9.700;2024-01-30T02:26:09;4.74;93.28
64198;SHT31;50512;53.666;9.700;2024-01-30T02:28:36;4.68;93.29
64198;SHT31;50512;53.666;9.700;2024-01-30T02:31:03;4.70;93.36
64198;SHT31;50512;53.666;9.700;2024-01-30T02:33:29;4.71;93.16
64198;SHT31;50512;53.666;9.700;2024-01-30T02:35:56;4.74;92.98
64198;SHT31;50512;53.666;9.700;2024-01-30T02:38:24;4.70;93.08
64198;SHT31;50512;53.666;9.700;2024-01-30T02:40:52;4.65;93.18
64198;SHT31;50512;53.666;9.700;2024-01-30T02:43:18;4.64;93.19
64198;SHT31;50512;53.666;9.700;2024-01-30T02:45:45;4.57;93.32
64198;SHT31;50512;53.666;9.700;2024-01-30T02:48:11;4.50;93.64
64198;SHT31;50512;53.666;9.700;2024-01-30T02:50:38;4.61;93.53
64198;SHT31;50512;53.666;9.700;2024-01-30T02:53:04;4.63;93.08
64198;SHT31;50512;53.666;9.700;2024-01-30T02:55:32;4.49;93.66
64198;SHT31;50512;53.666;9.700;2024-01-30T02:57:59;4.60;93.54
64198;SHT31;50512;53.666;9.700;2024-01-30T03:00:25;4.61;93.46
64198;SHT31;50512;53.666;9.700;2024-01-30T03:02:52;4.54;93.32
64198;SHT31;50512;53.666;9.700;2024-01-30T03:05:18;4.36;94.06
64198;SHT31;50512;53.666;9.700;2024-01-30T03:07:45;4.33;94.10
64198;SHT31;50512;53.666;9.700;2024-01-30T03:10:11;4.28;94.45
64198;SHT31;50512;53.666;9.700;2024-01-30T03:12:39;4.36;94.10
64198;SHT31;50512;53.666;9.700;2024-01-30T03:15:06;4.37;94.28
64198;SHT31;50512;53.666;9.700;2024-01-30T03:17:32;4.54;93.90
64198;SHT31;50512;53.666;9.700;2024-01-30T03:19:59;4.50;93.53
64198;SHT31;50512;53.666;9.700;2024-01-30T03:22:25;4.49;93.63
64198;SHT31;50512;53.666;9.700;2024-01-30T03:24:52;4.49;93.65
64198;SHT31;50512;53.666;9.700;2024-01-30T03:27:18;4.44;93.86
64198;SHT31;50512;53.666;9.700;2024-01-30T03:29:46;4.46;93.92
64198;SHT31;50512;53.666;9.700;2024-01-30T03:32:12;4.44;94.03
64198;SHT31;50512;53.666;9.700;2024-01-30T03:34:39;4.42;93.95
64198;SHT31;50512;53.666;9.700;2024-01-30T03:37:05;4.40;94.16
64198;SHT31;50512;53.666;9.700;2024-01-30T03:39:32;4.33;94.38
64198;SHT31;50512;53.666;9.700;2024-01-30T03:41:58;4.32;94.57
64198;SHT31;50512;53.666;9.700;2024-01-30T03:44:25;4.33;94.50
64198;SHT31;50512;53.666;9.700;2024-01-30T03:46:52;4.37;94.45
64198;SHT31;50512;53.666;9.700;2024-01-30T03:49:19;4.30;94.45
64198;SHT31;50512;53.666;9.700;2024-01-30T03:51:45;4.30;94.45
64198;SHT31;50512;53.666;9.700;2024-01-30T03:54:12;4.22;94.90
64198;SHT31;50512;53.666;9.700;2024-01-30T03:56:39;4.25;94.85
64198;SHT31;50512;53.666;9.700;2024-01-30T03:59:05;4.29;94.73
64198;SHT31;50512;53.666;9.700;2024-01-30T04:01:32;4.23;94.96
64198;SHT31;50512;53.666;9.700;2024-01-30T04:04:00;4.08;95.25
64198;SHT31;50512;53.666;9.700;2024-01-30T04:06:27;3.99;95.76
64198;SHT31;50512;53.666;9.700;2024-01-30T04:08:53;4.03;95.87
64198;SHT31;50512;53.666;9.700;2024-01-30T04:11:20;4.10;95.67
64198;SHT31;50512;53.666;9.700;2024-01-30T04:13:46;4.08;95.46
64198;SHT31;50512;53.666;9.700;2024-01-30T04:16:19;4.08;95.70
64198;SHT31;50512;53.666;9.700;2024-01-30T04:18:46;4.15;95.76
64198;SHT31;50512;53.666;9.700;2024-01-30T04:21:13;4.12;95.71
64198;SHT31;50512;53.666;9.700;2024-01-30T04:23:40;4.09;95.70
64198;SHT31;50512;53.666;9.700;2024-01-30T04:26:06;4.03;95.79
64198;SHT31;50512;53.666;9.700;2024-01-30T04:28:33;4.05;95.97
64198;SHT31;50512;53.666;9.700;2024-01-30T04:30:59;3.98;96.19
64198;SHT31;50512;53.666;9.700;2024-01-30T04:33:26;4.10;96.08
64198;SHT31;50512;53.666;9.700;2024-01-30T04:35:52;4.08;95.90
64198;SHT31;50512;53.666;9.700;2024-01-30T04:38:20;4.08;96.22
64198;SHT31;50512;53.666;9.700;2024-01-30T04:40:46;4.10;95.94
64198;SHT31;50512;53.666;9.700;2024-01-30T04:43:13;4.02;95.90
64198;SHT31;50512;53.666;9.700;2024-01-30T04:45:39;4.02;96.46
64198;SHT31;50512;53.666;9.700;2024-01-30T04:48:06;4.05;96.48
64198;SHT31;50512;53.666;9.700;2024-01-30T04:50:33;4.15;96.38
64198;SHT31;50512;53.666;9.700;2024-01-30T04:52:59;4.09;96.23
64198;SHT31;50512;53.666;9.700;2024-01-30T04:55:27;4.08;96.39
64198;SHT31;50512;53.666;9.700;2024-01-30T04:57:53;4.02;96.39
64198;SHT31;50512;53.666;9.700;2024-01-30T05:00:20;4.05;96.54
64198;SHT31;50512;53.666;9.700;2024-01-30T05:02:46;4.12;96.51
64198;SHT31;50512;53.666;9.700;2024-01-30T05:05:13;4.13;96.50
64198;SHT31;50512;53.666;9.700;2024-01-30T05:07:41;4.20;96.64
64198;SHT31;50512;53.666;9.700;2024-01-30T05:10:08;4.30;96.44
64198;SHT31;50512;53.666;9.700;2024-01-30T05:12:36;4.28;96.39
64198;SHT31;50512;53.666;9.700;2024-01-30T05:15:03;4.26;96.72
64198;SHT31;50512;53.666;9.700;2024-01-30T05:17:29;4.28;96.77
64198;SHT31;50512;53.666;9.700;2024-01-30T05:19:56;4.36;96.46
64198;SHT31;50512;53.666;9.700;2024-01-30T05:22:22;4.35;96.56
64198;SHT31;50512;53.666;9.700;2024-01-30T05:24:49;4.39;96.61
64198;SHT31;50512;53.666;9.700;2024-01-30T05:27:15;4.37;96.64
64198;SHT31;50512;53.666;9.700;2024-01-30T05:29:43;4.46;96.49
64198;SHT31;50512;53.666;9.700;2024-01-30T05:32:11;4.58;96.33
64198;SHT31;50512;53.666;9.700;2024-01-30T05:34:37;4.60;96.23
64198;SHT31;50512;53.666;9.700;2024-01-30T05:37:03;4.54;96.24
64198;SHT31;50512;53.666;9.700;2024-01-30T05:39:30;4.54;96.43
64198;SHT31;50512;53.666;9.700;2024-01-30T05:41:58;4.57;96.33
64198;SHT31;50512;53.666;9.700;2024-01-30T05:44:24;4.56;96.44
64198;SHT31;50512;53.666;9.700;2024-01-30T05:46:52;4.57;96.46
64198;SHT31;50512;53.666;9.700;2024-01-30T05:49:18;4.63;96.46
64198;SHT31;50512;53.666;9.700;2024-01-30T05:51:45;4.60;96.33
64198;SHT31;50512;53.666;9.700;2024-01-30T05:54:11;4.57;96.40
64198;SHT31;50512;53.666;9.700;2024-01-30T05:56:38;4.56;96.59
64198;SHT31;50512;53.666;9.700;2024-01-30T05:59:04;4.50;96.64
64198;SHT31;50512;53.666;9.700;2024-01-30T06:01:31;4.54;96.75
64198;SHT31;50512;53.666;9.700;2024-01-30T06:03:58;4.61;96.65
64198;SHT31;50512;53.666;9.700;2024-01-30T06:06:25;4.50;96.69
64198;SHT31;50512;53.666;9.700;2024-01-30T06:08:51;4.52;96.94
64198;SHT31;50512;53.666;9.700;2024-01-30T06:11:20;4.57;96.92
64198;SHT31;50512;53.666;9.700;2024-01-30T06:13:46;4.58;96.90
64198;SHT31;50512;53.666;9.700;2024-01-30T06:16:13;4.57;97.03
64198;SHT31;50512;53.666;9.700;2024-01-30T06:18:40;4.64;97.07
64198;SHT31;50512;53.666;9.700;2024-01-30T06:21:08;4.77;96.67
64198;SHT31;50512;53.666;9.700;2024-01-30T06:23:34;4.81;96.57
64198;SHT31;50512;53.666;9.700;2024-01-30T06:26:00;4.80;96.60
64198;SHT31;50512;53.666;9.700;2024-01-30T06:28:27;4.81;96.78
64198;SHT31;50512;53.666;9.700;2024-01-30T06:30:53;4.91;96.53
64198;SHT31;50512;53.666;9.700;2024-01-30T06:33:20;4.89;96.54
64198;SHT31;50512;53.666;9.700;2024-01-30T06:35:46;4.85;96.50
64198;SHT31;50512;53.666;9.700;2024-01-30T06:38:14;4.87;96.67
64198;SHT31;50512;53.666;9.700;2024-01-30T06:40:41;4.87;96.62
64198;SHT31;50512;53.666;9.700;2024-01-30T06:43:07;4.81;96.83
64198;SHT31;50512;53.666;9.700;2024-01-30T06:45:34;4.84;97.01
64198;SHT31;50512;53.666;9.700;2024-01-30T06:48:01;4.82;96.96
64198;SHT31;50512;53.666;9.700;2024-01-30T06:50:27;4.81;97.05
64198;SHT31;50512;53.666;9.700;2024-01-30T06:52:54;4.78;97.03
64198;SHT31;50512;53.666;9.700;2024-01-30T06:55:21;4.81;97.25
64198;SHT31;50512;53.666;9.700;2024-01-30T06:57:48;4.82;97.08
64198;SHT31;50512;53.666;9.700;2024-01-30T07:00:15;4.82;97.27
64198;SHT31;50512;53.666;9.700;2024-01-30T07:02:44;4.91;97.00
64198;SHT31;50512;53.666;9.700;2024-01-30T07:05:10;4.88;96.61
64198;SHT31;50512;53.666;9.700;2024-01-30T07:07:37;4.85;96.92
64198;SHT31;50512;53.666;9.700;2024-01-30T07:10:04;4.75;97.27
64198;SHT31;50512;53.666;9.700;2024-01-30T07:12:32;4.77;97.67
64198;SHT31;50512;53.666;9.700;2024-01-30T07:14:58;4.78;97.39
64198;SHT31;50512;53.666;9.700;2024-01-30T07:17:25;4.73;97.41
64198;SHT31;50512;53.666;9.700;2024-01-30T07:19:51;4.71;97.69
64198;SHT31;50512;53.666;9.700;2024-01-30T07:22:18;4.82;97.64
64198;SHT31;50512;53.666;9.700;2024-01-30T07:24:44;4.92;97.55
64198;SHT31;50512;53.666;9.700;2024-01-30T07:27:13;4.92;97.44
64198;SHT31;50512;53.666;9.700;2024-01-30T07:29:41;5.07;97.29
64198;SHT31;50512;53.666;9.700;2024-01-30T07:32:07;5.12;97.10
64198;SHT31;50512;53.666;9.700;2024-01-30T07:34:34;5.16;96.94
64198;SHT31;50512;53.666;9.700;2024-01-30T07:37:01;5.22;96.82
64198;SHT31;50512;53.666;9.700;2024-01-30T07:39:28;5.36;96.73
64198;SHT31;50512;53.666;9.700;2024-01-30T07:41:54;5.39;96.66
64198;SHT31;50512;53.666;9.700;2024-01-30T07:44:20;5.37;96.60
64198;SHT31;50512;53.666;9.700;2024-01-30T07:46:48;5.46;96.44
64198;SHT31;50512;53.666;9.700;2024-01-30T07:49:15;5.50;96.42
64198;SHT31;50512;53.666;9.700;2024-01-30T07:51:41;5.54;96.31
64198;SHT31;50512;53.666;9.700;2024-01-30T07:54:14;5.57;96.26
64198;SHT31;50512;53.666;9.700;2024-01-30T07:56:40;5.58;96.18
64198;SHT31;50512;53.666;9.700;2024-01-30T07:59:09;5.58;96.24
64198;SHT31;50512;53.666;9.700;2024-01-30T08:01:35;5.65;96.12
64198;SHT31;50512;53.666;9.700;2024-01-30T08:04:04;5.67;96.13
64198;SHT31;50512;53.666;9.700;2024-01-30T08:06:30;5.71;96.00
64198;SHT31;50512;53.666;9.700;2024-01-30T08:08:57;5.81;95.79
64198;SHT31;50512;53.666;9.700;2024-01-30T08:11:24;5.87;95.57
64198;SHT31;50512;53.666;9.700;2024-01-30T08:13:52;5.88;95.60
64198;SHT31;50512;53.666;9.700;2024-01-30T08:16:19;5.91;95.59
64198;SHT31;50512;53.666;9.700;2024-01-30T08:18:45;5.99;95.89
64198;SHT31;50512;53.666;9.700;2024-01-30T08:21:13;6.30;95.12
64198;SHT31;50512;53.666;9.700;2024-01-30T08:23:39;6.18;94.75
64198;SHT31;50512;53.666;9.700;2024-01-30T08:26:06;6.18;94.84
64198;SHT31;50512;53.666;9.700;2024-01-30T08:28:33;6.23;94.77
64198;SHT31;50512;53.666;9.700;2024-01-30T08:30:59;6.26;94.68
64198;SHT31;50512;53.666;9.700;2024-01-30T08:33:25;6.36;94.33
64198;SHT31;50512;53.666;9.700;2024-01-30T08:35:52;6.39;94.28
64198;SHT31;50512;53.666;9.700;2024-01-30T08:38:20;6.37;94.44
64198;SHT31;50512;53.666;9.700;2024-01-30T08:40:46;6.37;94.42
64198;SHT31;50512;53.666;9.700;2024-01-30T08:43:13;6.40;94.37
64198;SHT31;50512;53.666;9.700;2024-01-30T08:45:40;6.43;94.32
64198;SHT31;50512;53.666;9.700;2024-01-30T08:48:07;6.48;94.24
64198;SHT31;50512;53.666;9.700;2024-01-30T08:50:34;6.57;93.82
64198;SHT31;50512;53.666;9.700;2024-01-30T08:53:00;6.60;93.81
64198;SHT31;50512;53.666;9.700;2024-01-30T08:55:29;6.66;93.77
64198;SHT31;50512;53.666;9.700;2024-01-30T08:57:56;6.70;93.60
64198;SHT31;50512;53.666;9.700;2024-01-30T09:00:22;6.80;93.30
64198;SHT31;50512;53.666;9.700;2024-01-30T09:02:49;6.78;93.39
64198;SHT31;50512;53.666;9.700;2024-01-30T09:05:15;6.84;93.08
64198;SHT31;50512;53.666;9.700;2024-01-30T09:07:41;6.95;93.12
64198;SHT31;50512;53.666;9.700;2024-01-30T09:10:08;6.96;92.97
64198;SHT31;50512;53.666;9.700;2024-01-30T09:12:36;6.99;92.95
64198;SHT31;50512;53.666;9.700;2024-01-30T09:15:04;7.01;92.71
64198;SHT31;50512;53.666;9.700;2024-01-30T09:17:30;7.05;92.64
64198;SHT31;50512;53.666;9.700;2024-01-30T09:19:58;7.08;92.65
64198;SHT31;50512;53.666;9.700;2024-01-30T09:22:24;7.05;92.75
64198;SHT31;50512;53.666;9.700;2024-01-30T09:24:51;7.09;92.86
64198;SHT31;50512;53.666;9.700;2024-01-30T09:27:17;7.15;92.48
64198;SHT31;50512;53.666;9.700;2024-01-30T09:29:45;7.16;92.40
64198;SHT31;50512;53.666;9.700;2024-01-30T09:32:11;7.19;92.35
64198;SHT31;50512;53.666;9.700;2024-01-30T09:34:38;7.32;92.26
64198;SHT31;50512;53.666;9.700;2024-01-30T09:37:05;7.36;92.19
64198;SHT31;50512;53.666;9.700;2024-01-30T09:39:31;7.36;91.88
64198;SHT31;50512;53.666;9.700;2024-01-30T09:42:02;7.39;91.86
64198;SHT31;50512;53.666;9.700;2024-01-30T09:44:32;7.42;91.95
64198;SHT31;50512;53.666;9.700;2024-01-30T09:47:02;7.43;91.81
64198;SHT31;50512;53.666;9.700;2024-01-30T09:49:32;7.50;92.16
64198;SHT31;50512;53.666;9.700;2024-01-30T09:51:59;7.53;92.01
64198;SHT31;50512;53.666;9.700;2024-01-30T09:54:25;7.56;91.78
64198;SHT31;50512;53.666;9.700;2024-01-30T09:56:52;7.61;91.90
64198;SHT31;50512;53.666;9.700;2024-01-30T09:59:18;7.68;91.59
64198;SHT31;50512;53.666;9.700;2024-01-30T10:01:45;7.71;91.58
64198;SHT31;50512;53.666;9.700;2024-01-30T10:04:13;7.79;91.39
64198;SHT31;50512;53.666;9.700;2024-01-30T10:06:40;7.84;91.33
64198;SHT31;50512;53.666;9.700;2024-01-30T10:09:07;7.91;91.24
64198;SHT31;50512;53.666;9.700;2024-01-30T10:11:33;7.96;91.28
64198;SHT31;50512;53.666;9.700;2024-01-30T10:14:00;7.98;91.04
64198;SHT31;50512;53.666;9.700;2024-01-30T10:16:26;8.01;91.05
64198;SHT31;50512;53.666;9.700;2024-01-30T10:18:53;8.03;90.96
64198;SHT31;50512;53.666;9.700;2024-01-30T10:21:21;8.07;91.11
64198;SHT31;50512;53.666;9.700;2024-01-30T10:23:48;8.10;91.24
64198;SHT31;50512;53.666;9.700;2024-01-30T10:26:16;8.16;90.99
64198;SHT31;50512;53.666;9.700;2024-01-30T10:28:42;8.12;90.71
64198;SHT31;50512;53.666;9.700;2024-01-30T10:31:09;8.16;90.54
64198;SHT31;50512;53.666;9.700;2024-01-30T10:33:35;8.17;90.65
64198;SHT31;50512;53.666;9.700;2024-01-30T10:36:03;8.26;91.11
64198;SHT31;50512;53.666;9.700;2024-01-30T10:38:32;8.28;90.81
64198;SHT31;50512;53.666;9.700;2024-01-30T10:41:00;8.34;90.50
64198;SHT31;50512;53.666;9.700;2024-01-30T10:43:30;8.43;90.41
64198;SHT31;50512;53.666;9.700;2024-01-30T10:46:03;8.44;90.24
64198;SHT31;50512;53.666;9.700;2024-01-30T10:48:32;8.44;90.79
64198;SHT31;50512;53.666;9.700;2024-01-30T10:51:02;8.50;90.48
64198;SHT31;50512;53.666;9.700;2024-01-30T10:53:32;8.57;90.63
64198;SHT31;50512;53.666;9.700;2024-01-30T10:55:59;8.57;90.71
64198;SHT31;50512;53.666;9.700;2024-01-30T10:58:26;8.60;90.46
64198;SHT31;50512;53.666;9.700;2024-01-30T11:00:54;8.63;90.38
64198;SHT31;50512;53.666;9.700;2024-01-30T11:03:21;8.67;90.49
64198;SHT31;50512;53.666;9.700;2024-01-30T11:05:49;8.64;90.33
64198;SHT31;50512;53.666;9.700;2024-01-30T11:08:23;8.70;90.44
64198;SHT31;50512;53.666;9.700;2024-01-30T11:10:55;8.72;90.63
64198;SHT31;50512;53.666;9.700;2024-01-30T11:13:22;8.75;90.32
64198;SHT31;50512;53.666;9.700;2024-01-30T11:15:48;8.74;90.51
64198;SHT31;50512;53.666;9.700;2024-01-30T11:18:23;8.78;90.39
64198;SHT31;50512;53.666;9.700;2024-01-30T11:20:49;8.81;90.36
64198;SHT31;50512;53.666;9.700;2024-01-30T11:23:16;8.84;90.37
64198;SHT31;50512;53.666;9.700;2024-01-30T11:25:43;8.81;90.41
64198;SHT31;50512;53.666;9.700;2024-01-30T11:28:14;8.88;90.37
64198;SHT31;50512;53.666;9.700;2024-01-30T11:30:41;8.88;90.07
64198;SHT31;50512;53.666;9.700;2024-01-30T11:33:09;8.92;90.32
64198;SHT31;50512;53.666;9.700;2024-01-30T11:35:38;8.91;90.13
64198;SHT31;50512;53.666;9.700;2024-01-30T11:38:06;8.93;90.44
64198;SHT31;50512;53.666;9.700;2024-01-30T11:40:34;8.93;90.47
64198;SHT31;50512;53.666;9.700;2024-01-30T11:43:01;8.93;90.49
64198;SHT31;50512;53.666;9.700;2024-01-30T11:45:30;8.98;90.39
64198;SHT31;50512;53.666;9.700;2024-01-30T11:47:57;9.01;90.20
64198;SHT31;50512;53.666;9.700;2024-01-30T11:50:25;8.98;90.59
64198;SHT31;50512;53.666;9.700;2024-01-30T11:52:51;9.02;90.33
64198;SHT31;50512;53.666;9.700;2024-01-30T11:55:18;9.04;90.44
64198;SHT31;50512;53.666;9.700;2024-01-30T11:57:45;9.05;90.14
64198;SHT31;50512;53.666;9.700;2024-01-30T12:00:16;9.05;90.36
64198;SHT31;50512;53.666;9.700;2024-01-30T12:02:49;9.08;90.66
64198;SHT31;50512;53.666;9.700;2024-01-30T12:05:15;9.08;90.42
64198;SHT31;50512;53.666;9.700;2024-01-30T12:07:44;9.08;90.36
64198;SHT31;50512;53.666;9.700;2024-01-30T12:10:10;9.06;90.73
64198;SHT31;50512;53.666;9.700;2024-01-30T12:12:39;9.09;90.62
64198;SHT31;50512;53.666;9.700;2024-01-30T12:15:07;9.05;90.65
64198;SHT31;50512;53.666;9.700;2024-01-30T12:17:34;9.09;90.44
64198;SHT31;50512;53.666;9.700;2024-01-30T12:20:06;9.14;90.50
64198;SHT31;50512;53.666;9.700;2024-01-30T12:22:35;9.12;90.48
64198;SHT31;50512;53.666;9.700;2024-01-30T12:25:04;9.18;90.78
64198;SHT31;50512;53.666;9.700;2024-01-30T12:27:31;9.19;90.91
64198;SHT31;50512;53.666;9.700;2024-01-30T12:29:57;9.23;90.78
64198;SHT31;50512;53.666;9.700;2024-01-30T12:32:24;9.26;90.36
64198;SHT31;50512;53.666;9.700;2024-01-30T12:34:50;9.33;90.48
64198;SHT31;50512;53.666;9.700;2024-01-30T12:37:18;9.34;90.51
64198;SHT31;50512;53.666;9.700;2024-01-30T12:39:48;9.36;90.64
64198;SHT31;50512;53.666;9.700;2024-01-30T12:42:14;9.39;90.36
64198;SHT31;50512;53.666;9.700;2024-01-30T12:44:41;9.37;90.83
64198;SHT31;50512;53.666;9.700;2024-01-30T12:47:08;9.33;90.55
64198;SHT31;50512;53.666;9.700;2024-01-30T12:49:35;9.34;90.99
64198;SHT31;50512;53.666;9.700;2024-01-30T12:52:02;9.36;90.73
64198;SHT31;50512;53.666;9.700;2024-01-30T12:54:32;9.36;90.70
64198;SHT31;50512;53.666;9.700;2024-01-30T12:56:58;9.34;91.11
64198;SHT31;50512;53.666;9.700;2024-01-30T12:59:25;9.32;91.16
64198;SHT31;50512;53.666;9.700;2024-01-30T13:01:52;9.32;91.22
64198;SHT31;50512;53.666;9.700;2024-01-30T13:04:18;9.33;91.31
64198;SHT31;50512;53.666;9.700;2024-01-30T13:06:44;9.37;91.13
64198;SHT31;50512;53.666;9.700;2024-01-30T13:09:11;9.36;91.33
64198;SHT31;50512;53.666;9.700;2024-01-30T13:11:39;9.34;91.72
64198;SHT31;50512;53.666;9.700;2024-01-30T13:14:05;9.34;91.78
64198;SHT31;50512;53.666;9.700;2024-01-30T13:16:32;9.32;92.20
64198;SHT31;50512;53.666;9.700;2024-01-30T13:18:58;9.26;92.08
64198;SHT31;50512;53.666;9.700;2024-01-30T13:21:26;9.27;92.16
64198;SHT31;50512;53.666;9.700;2024-01-30T13:23:53;9.37;92.65
64198;SHT31;50512;53.666;9.700;2024-01-30T13:26:20;9.88;90.08
64198;SHT31;50512;53.666;9.700;2024-01-30T13:28:47;9.64;91.12
64198;SHT31;50512;53.666;9.700;2024-01-30T13:31:14;9.43;91.88
64198;SHT31;50512;53.666;9.700;2024-01-30T13:33:41;9.37;92.15
64198;SHT31;50512;53.666;9.700;2024-01-30T13:36:08;9.36;92.47
64198;SHT31;50512;53.666;9.700;2024-01-30T13:38:35;9.30;92.94
64198;SHT31;50512;53.666;9.700;2024-01-30T13:41:02;9.32;92.61
64198;SHT31;50512;53.666;9.700;2024-01-30T13:43:28;9.39;92.39
64198;SHT31;50512;53.666;9.700;2024-01-30T13:45:56;9.36;92.62
64198;SHT31;50512;53.666;9.700;2024-01-30T13:48:23;9.39;92.51
64198;SHT31;50512;53.666;9.700;2024-01-30T13:50:49;9.36;92.61
64198;SHT31;50512;53.666;9.700;2024-01-30T13:53:16;9.36;92.50
64198;SHT31;50512;53.666;9.700;2024-01-30T13:55:43;9.32;92.93
64198;SHT31;50512;53.666;9.700;2024-01-30T13:58:09;9.32;92.81
64198;SHT31;50512;53.666;9.700;2024-01-30T14:00:36;9.37;92.37
64198;SHT31;50512;53.666;9.700;2024-01-30T14:03:04;9.34;92.48
64198;SHT31;50512;53.666;9.700;2024-01-30T14:05:31;9.32;92.57
64198;SHT31;50512;53.666;9.700;2024-01-30T14:07:57;9.27;92.84
64198;SHT31;50512;53.666;9.700;2024-01-30T14:10:24;9.25;92.96
64198;SHT31;50512;53.666;9.700;2024-01-30T14:12:51;9.26;92.84
64198;SHT31;50512;53.666;9.700;2024-01-30T14:15:18;9.33;92.48
64198;SHT31;50512;53.666;9.700;2024-01-30T14:17:45;9.37;92.33
64198;SHT31;50512;53.666;9.700;2024-01-30T14:20:15;9.33;92.55
64198;SHT31;50512;53.666;9.700;2024-01-30T14:22:42;9.36;92.47
64198;SHT31;50512;53.666;9.700;2024-01-30T14:25:09;9.36;92.69
64198;SHT31;50512;53.666;9.700;2024-01-30T14:27:35;9.34;92.74
64198;SHT31;50512;53.666;9.700;2024-01-30T14:30:03;9.34;92.73
64198;SHT31;50512;53.666;9.700;2024-01-30T14:32:29;9.34;92.60
64198;SHT31;50512;53.666;9.700;2024-01-30T14:34:56;9.37;92.77
64198;SHT31;50512;53.666;9.700;2024-01-30T14:37:24;9.36;92.92
64198;SHT31;50512;53.666;9.700;2024-01-30T14:39:50;9.30;93.17
64198;SHT31;50512;53.666;9.700;2024-01-30T14:42:17;9.33;92.87
64198;SHT31;50512;53.666;9.700;2024-01-30T14:44:43;9.34;92.84
64198;SHT31;50512;53.666;9.700;2024-01-30T14:47:09;9.37;93.05
64198;SHT31;50512;53.666;9.700;2024-01-30T14:49:38;9.42;92.70
64198;SHT31;50512;53.666;9.700;2024-01-30T14:52:05;9.40;92.97
64198;SHT31;50512;53.666;9.700;2024-01-30T14:54:32;9.42;93.00
64198;SHT31;50512;53.666;9.700;2024-01-30T14:56:59;9.42;93.05
64198;SHT31;50512;53.666;9.700;2024-01-30T14:59:26;9.40;93.11
64198;SHT31;50512;53.666;9.700;2024-01-30T15:01:52;9.43;93.06
64198;SHT31;50512;53.666;9.700;2024-01-30T15:04:19;9.40;93.16
64198;SHT31;50512;53.666;9.700;2024-01-30T15:06:45;9.46;92.98
64198;SHT31;50512;53.666;9.700;2024-01-30T15:09:13;9.43;93.14
64198;SHT31;50512;53.666;9.700;2024-01-30T15:11:43;9.40;93.27
64198;SHT31;50512;53.666;9.700;2024-01-30T15:14:10;9.39;93.50
64198;SHT31;50512;53.666;9.700;2024-01-30T15:16:36;9.42;93.48
64198;SHT31;50512;53.666;9.700;2024-01-30T15:19:03;9.42;93.45
64198;SHT31;50512;53.666;9.700;2024-01-30T15:21:29;9.44;93.41
64198;SHT31;50512;53.666;9.700;2024-01-30T15:23:56;9.43;93.63
64198;SHT31;50512;53.666;9.700;2024-01-30T15:26:22;9.39;93.72
64198;SHT31;50512;53.666;9.700;2024-01-30T15:28:51;9.42;93.80
64198;SHT31;50512;53.666;9.700;2024-01-30T15:31:17;9.47;93.53
64198;SHT31;50512;53.666;9.700;2024-01-30T15:33:44;9.53;93.39
64198;SHT31;50512;53.666;9.700;2024-01-30T15:36:10;9.53;93.53
64198;SHT31;50512;53.666;9.700;2024-01-30T15:38:38;9.44;93.87
64198;SHT31;50512;53.666;9.700;2024-01-30T15:41:05;9.43;93.87
64198;SHT31;50512;53.666;9.700;2024-01-30T15:43:31;9.46;93.76